4  °C
Temperature
3  °C
  Dewpoint
93  %
   Humidity
Temp | Dewpoint | Humidity
14  km/h
Wind Speed
9  mph
Wind Speed
8  kts
Wind Speed
280°
Due West

Wind Speed
Mostly Scattered
Clouds
Pressure 1013.92 (hPa) - 29.94 (in)
Visibility 6.2 (mi) - 10.0 (km)

Current Conditions
EHRD
Location Rotterdam 6km (3.2mi)
Metar :EHRD 110625Z AUTO 28008KT 260V330 9999 SCT015 04/03 Q1014 NOSIG
Mon 11th February 07:25 am

Airport
  Metar Aviation API Data Provided by https://www.checkwx.com/ CSS/SVG/PHP scripts by weather34.com © 2015-2019